createdAt,value
2022-10-09T00:01:24.938Z,7.13
2022-10-09T00:04:27.936Z,6.53
2022-10-09T00:07:30.938Z,6.60
2022-10-09T00:10:34.216Z,6.37
2022-10-09T00:13:39.196Z,6.40
2022-10-09T00:16:42.216Z,6.30
2022-10-09T00:19:45.242Z,6.00
2022-10-09T00:22:48.447Z,6.57
2022-10-09T00:25:53.800Z,6.30
2022-10-09T00:28:58.740Z,6.47
2022-10-09T00:32:01.797Z,6.47
2022-10-09T00:35:05.058Z,6.77
2022-10-09T00:38:08.369Z,6.67
2022-10-09T00:41:14.263Z,6.20
2022-10-09T00:44:51.644Z,6.57
2022-10-09T00:47:57.161Z,6.40
2022-10-09T00:51:02.956Z,6.20
2022-10-09T00:54:10.720Z,6.10
2022-10-09T00:57:14.121Z,5.83
2022-10-09T01:00:18.782Z,6.00
2022-10-09T01:03:24.598Z,6.03
2022-10-09T01:06:41.080Z,5.50
2022-10-09T01:09:49.286Z,5.80
2022-10-09T01:13:00.910Z,6.03
2022-10-09T01:16:11.922Z,6.10
2022-10-09T01:19:31.768Z,5.27
2022-10-09T01:22:55.441Z,6.00
2022-10-09T01:26:08.546Z,5.57
2022-10-09T01:29:15.874Z,5.77
2022-10-09T01:32:23.018Z,5.67
2022-10-09T01:35:27.514Z,4.80
2022-10-09T01:38:31.658Z,5.33
2022-10-09T01:41:35.228Z,5.73
2022-10-09T01:44:39.713Z,5.20
2022-10-09T01:47:43.083Z,5.67
2022-10-09T01:50:49.214Z,5.40
2022-10-09T01:53:55.835Z,5.70
2022-10-09T01:57:03.006Z,5.43
2022-10-09T02:00:11.597Z,5.03
2022-10-09T02:03:17.288Z,5.30
2022-10-09T02:06:21.302Z,5.00
2022-10-09T02:09:25.974Z,5.10
2022-10-09T02:12:31.444Z,5.20
2022-10-09T02:15:43.537Z,4.90
2022-10-09T02:18:49.762Z,4.67
2022-10-09T02:21:56.654Z,4.53
2022-10-09T02:25:02.714Z,4.77
2022-10-09T02:28:06.763Z,4.87
2022-10-09T02:31:18.893Z,4.83
2022-10-09T02:34:22.754Z,4.90
2022-10-09T02:37:25.737Z,4.70
2022-10-09T02:40:28.719Z,4.83
2022-10-09T02:43:31.660Z,4.30
2022-10-09T02:46:38.026Z,4.80
2022-10-09T02:49:41.102Z,4.50
2022-10-09T02:52:44.080Z,5.10
2022-10-09T02:55:47.622Z,4.30
2022-10-09T02:58:51.140Z,4.43
2022-10-09T03:01:55.903Z,4.10
2022-10-09T03:04:59.266Z,4.03
2022-10-09T03:08:02.241Z,4.30
2022-10-09T03:11:05.987Z,4.70
2022-10-09T03:14:09.898Z,4.03
2022-10-09T03:17:14.309Z,4.40
2022-10-09T03:20:18.310Z,4.73
2022-10-09T03:23:21.293Z,4.00
2022-10-09T03:26:26.334Z,4.43
2022-10-09T03:29:29.315Z,4.03
2022-10-09T03:32:33.712Z,4.43
2022-10-09T03:35:36.739Z,4.43
2022-10-09T03:38:39.783Z,3.97
2022-10-09T03:41:42.706Z,4.70
2022-10-09T03:44:45.699Z,4.47
2022-10-09T03:47:50.083Z,4.17
2022-10-09T03:50:53.199Z,3.83
2022-10-09T03:53:56.190Z,4.00
2022-10-09T03:56:59.161Z,4.00
2022-10-09T04:00:02.130Z,4.23
2022-10-09T04:03:06.769Z,4.00
2022-10-09T04:06:09.775Z,4.10
2022-10-09T04:09:12.787Z,3.57
2022-10-09T04:12:15.895Z,4.17
2022-10-09T04:15:19.025Z,4.13
2022-10-09T04:18:23.744Z,6.00
2022-10-09T04:21:26.807Z,6.30
2022-10-09T04:24:30.763Z,6.40
2022-10-09T04:27:33.748Z,5.77
2022-10-09T04:30:36.781Z,5.87
2022-10-09T04:33:41.189Z,6.60
2022-10-09T04:36:44.211Z,6.63
2022-10-09T04:39:47.185Z,7.00
2022-10-09T04:42:50.489Z,6.70
2022-10-09T04:45:53.860Z,21.10
2022-10-09T04:48:58.285Z,23.10
2022-10-09T04:52:01.356Z,21.40
2022-10-09T04:55:04.310Z,19.27
2022-10-09T04:58:07.321Z,20.63
2022-10-09T05:01:13.117Z,18.53
2022-10-09T05:04:17.564Z,16.57
2022-10-09T05:07:20.567Z,21.97
2022-10-09T05:10:23.549Z,30.13
2022-10-09T05:13:26.503Z,31.43
2022-10-09T05:16:31.653Z,28.10
2022-10-09T05:19:36.206Z,23.50
2022-10-09T05:22:39.210Z,20.07
2022-10-09T05:25:42.192Z,18.03
2022-10-09T05:28:45.543Z,17.77
2022-10-09T05:31:49.740Z,16.63
2022-10-09T05:34:54.297Z,16.00
2022-10-09T05:37:57.256Z,15.23
2022-10-09T05:41:02.200Z,11.23
2022-10-09T05:44:05.470Z,10.90
2022-10-09T05:47:08.442Z,9.50
2022-10-09T05:50:12.938Z,9.70
2022-10-09T05:53:15.921Z,9.20
2022-10-09T05:56:20.461Z,8.90
2022-10-09T05:59:23.470Z,9.40
2022-10-09T06:02:26.488Z,8.97
2022-10-09T06:05:30.988Z,8.40
2022-10-09T06:08:35.025Z,8.70
2022-10-09T06:11:40.157Z,8.33
2022-10-09T06:14:43.145Z,8.77
2022-10-09T06:17:46.121Z,8.80
2022-10-09T06:20:57.069Z,7.53
2022-10-09T06:24:02.199Z,8.37
2022-10-09T06:27:05.297Z,8.83
2022-10-09T06:30:09.519Z,8.53
2022-10-09T06:33:12.499Z,9.00
2022-10-09T06:36:18.667Z,8.70
2022-10-09T06:39:22.616Z,7.93
2022-10-09T06:42:25.578Z,7.73
2022-10-09T06:45:28.619Z,6.90
2022-10-09T06:48:32.240Z,7.50
2022-10-09T06:51:37.098Z,8.27
2022-10-09T06:54:40.191Z,7.23
2022-10-09T06:57:43.169Z,10.57
2022-10-09T07:00:46.138Z,9.57
2022-10-09T07:03:53.789Z,8.90
2022-10-09T07:06:58.259Z,7.83
2022-10-09T07:10:01.347Z,7.73
2022-10-09T07:13:04.343Z,8.10
2022-10-09T07:16:08.106Z,8.13
2022-10-09T07:19:12.136Z,8.97
2022-10-09T07:22:16.532Z,10.10
2022-10-09T07:25:19.545Z,10.20
2022-10-09T07:28:22.562Z,9.87
2022-10-09T07:31:26.074Z,9.40
2022-10-09T07:34:29.076Z,10.30
2022-10-09T07:37:33.505Z,10.60
2022-10-09T07:40:37.090Z,11.90
2022-10-09T07:43:42.694Z,11.40
2022-10-09T07:46:46.416Z,8.77
2022-10-09T07:49:49.419Z,9.87
2022-10-09T07:52:53.806Z,8.93
2022-10-09T07:55:56.789Z,8.77
2022-10-09T07:59:01.416Z,10.10
2022-10-09T08:02:04.486Z,9.10
2022-10-09T08:05:08.099Z,8.90
2022-10-09T08:08:12.502Z,9.10
2022-10-09T08:11:17.260Z,11.50
2022-10-09T08:14:20.258Z,9.50
2022-10-09T08:17:23.305Z,10.37
2022-10-09T08:20:26.329Z,10.13
2022-10-09T08:23:31.077Z,9.77
2022-10-09T08:26:34.251Z,9.97
2022-10-09T08:29:40.259Z,9.80
2022-10-09T08:32:43.506Z,9.70
2022-10-09T08:35:46.491Z,9.20
2022-10-09T08:38:51.018Z,8.70
2022-10-09T08:41:57.698Z,9.70
2022-10-09T08:45:00.801Z,9.67
2022-10-09T08:48:07.472Z,9.63
2022-10-09T08:51:16.651Z,8.87
2022-10-09T08:54:27.770Z,8.70
2022-10-09T08:57:34.444Z,9.40
2022-10-09T09:00:47.000Z,9.43
2022-10-09T09:04:15.140Z,9.50
2022-10-09T09:07:29.371Z,14.30
2022-10-09T09:10:42.688Z,22.97
2022-10-09T09:13:55.545Z,22.10
2022-10-09T09:17:08.380Z,21.50
2022-10-09T09:20:17.405Z,20.80
2022-10-09T09:23:25.191Z,20.40
2022-10-09T09:26:30.021Z,19.37
2022-10-09T09:29:42.019Z,14.90
2022-10-09T09:32:58.043Z,14.50
2022-10-09T09:36:08.996Z,13.20
2022-10-09T09:39:55.722Z,13.70
2022-10-09T09:42:37.005Z,13.87
2022-10-09T09:45:40.059Z,14.60
2022-10-09T09:48:48.496Z,12.97
2022-10-09T09:51:52.617Z,13.23
2022-10-09T09:54:58.858Z,11.90
2022-10-09T09:58:06.591Z,12.80
2022-10-09T10:01:23.692Z,11.10
2022-10-09T10:04:28.344Z,12.30
2022-10-09T10:07:32.559Z,11.23
2022-10-09T10:10:35.647Z,11.80
2022-10-09T10:13:49.126Z,9.53
2022-10-09T10:16:53.825Z,10.20
2022-10-09T10:19:57.353Z,10.80
2022-10-09T10:23:01.670Z,9.77
2022-10-09T10:26:09.245Z,9.20
2022-10-09T10:29:17.972Z,8.47
2022-10-09T10:32:26.818Z,10.07
2022-10-09T10:35:32.716Z,11.67
2022-10-09T10:38:40.629Z,12.87
2022-10-09T10:41:48.960Z,11.80
2022-10-09T10:45:00.758Z,11.10
2022-10-09T10:48:05.747Z,11.53
2022-10-09T10:51:26.490Z,10.67
2022-10-09T10:54:37.599Z,11.53
2022-10-09T10:57:49.644Z,10.73
2022-10-09T11:01:06.463Z,10.53
2022-10-09T11:04:32.583Z,9.43
2022-10-09T11:07:46.598Z,9.93
2022-10-09T11:10:58.464Z,9.23
2022-10-09T11:14:17.868Z,9.40
2022-10-09T11:17:33.308Z,8.60
2022-10-09T11:21:06.588Z,9.33
2022-10-09T11:24:49.896Z,9.10
2022-10-09T11:27:59.174Z,9.00
2022-10-09T11:31:11.106Z,9.57
2022-10-09T11:34:21.354Z,9.77
2022-10-09T11:37:29.701Z,8.40
2022-10-09T11:40:36.013Z,8.83
2022-10-09T11:43:59.343Z,9.17
2022-10-09T11:47:11.863Z,9.50
2022-10-09T11:50:28.079Z,9.53
2022-10-09T11:53:34.540Z,9.40
2022-10-09T11:56:37.538Z,9.20
2022-10-09T11:59:42.560Z,9.40
2022-10-09T12:02:45.749Z,8.80
2022-10-09T12:05:51.060Z,10.23
2022-10-09T12:08:57.951Z,9.73
2022-10-09T12:12:07.244Z,10.40
2022-10-09T12:15:26.234Z,9.30
2022-10-09T12:18:32.488Z,9.17
2022-10-09T12:21:49.121Z,9.17
2022-10-09T12:24:56.382Z,9.47
2022-10-09T12:28:01.445Z,9.20
2022-10-09T12:31:08.330Z,8.67
2022-10-09T12:34:20.025Z,8.90
2022-10-09T12:37:33.565Z,9.90
2022-10-09T12:40:36.878Z,9.97
2022-10-09T12:43:45.690Z,9.93
2022-10-09T12:46:48.700Z,9.17
2022-10-09T12:49:59.510Z,9.47
2022-10-09T12:53:06.574Z,9.27
2022-10-09T12:56:13.689Z,9.40
2022-10-09T12:59:18.182Z,10.20
2022-10-09T13:02:22.245Z,10.10
2022-10-09T13:05:37.564Z,11.03
2022-10-09T13:08:42.628Z,10.70
2022-10-09T13:11:46.878Z,11.30
2022-10-09T13:14:56.181Z,11.20
2022-10-09T13:17:59.583Z,10.97
2022-10-09T13:21:05.710Z,11.80
2022-10-09T13:24:12.048Z,11.87
2022-10-09T13:27:15.758Z,10.80
2022-10-09T13:30:18.834Z,10.93
2022-10-09T13:33:21.992Z,9.70
2022-10-09T13:36:25.039Z,10.07
2022-10-09T13:39:29.954Z,9.73
2022-10-09T13:42:37.840Z,9.37
2022-10-09T13:45:40.886Z,9.97
2022-10-09T13:48:43.998Z,9.03
2022-10-09T13:51:47.038Z,8.80
2022-10-09T13:54:51.493Z,9.40
2022-10-09T13:57:55.279Z,8.07
2022-10-09T14:00:59.361Z,9.67
2022-10-09T14:04:02.500Z,8.67
2022-10-09T14:07:05.556Z,9.00
2022-10-09T14:10:11.174Z,8.17
2022-10-09T14:13:14.644Z,7.87
2022-10-09T14:16:18.110Z,8.70
2022-10-09T14:19:26.470Z,8.53
2022-10-09T14:22:29.508Z,7.57
2022-10-09T14:25:35.260Z,8.07
2022-10-09T14:28:38.382Z,7.97
2022-10-09T14:31:41.680Z,7.70
2022-10-09T14:34:44.809Z,7.80
2022-10-09T14:37:47.886Z,7.60
2022-10-09T14:40:52.357Z,7.60
2022-10-09T14:43:57.279Z,7.03
2022-10-09T14:47:00.294Z,7.97
2022-10-09T14:50:03.532Z,7.53
2022-10-09T14:53:06.552Z,7.50
2022-10-09T14:56:13.312Z,7.00
2022-10-09T14:59:16.334Z,7.20
2022-10-09T15:02:19.601Z,8.00
2022-10-09T15:05:22.658Z,8.20
2022-10-09T15:08:26.030Z,7.77
2022-10-09T15:11:31.195Z,7.20
2022-10-09T15:14:34.698Z,8.10
2022-10-09T15:17:37.717Z,7.10
2022-10-09T15:20:40.735Z,6.90
2022-10-09T15:23:44.508Z,7.63
2022-10-09T15:26:49.022Z,6.63
2022-10-09T15:29:52.113Z,7.40
2022-10-09T15:32:55.198Z,7.50
2022-10-09T15:35:58.216Z,7.00
2022-10-09T15:39:05.646Z,7.67
2022-10-09T15:42:10.110Z,8.07
2022-10-09T15:45:13.575Z,7.93
2022-10-09T15:48:18.802Z,8.10
2022-10-09T15:51:22.170Z,8.60
2022-10-09T15:54:25.235Z,9.37
2022-10-09T15:57:29.774Z,8.83
2022-10-09T16:00:36.851Z,10.20
2022-10-09T16:03:40.498Z,9.40
2022-10-09T16:06:43.492Z,8.60
2022-10-09T16:09:46.466Z,9.50
2022-10-09T16:12:51.338Z,8.90
2022-10-09T16:15:54.795Z,10.10
2022-10-09T16:18:57.944Z,10.17
2022-10-09T16:22:01.010Z,10.93
2022-10-09T16:25:04.062Z,10.90
2022-10-09T16:28:11.126Z,12.30
2022-10-09T16:31:20.663Z,12.13
2022-10-09T16:34:23.830Z,11.50
2022-10-09T16:37:26.871Z,12.00
2022-10-09T16:40:49.977Z,12.00
2022-10-09T16:43:55.986Z,11.50
2022-10-09T16:46:59.323Z,11.80
2022-10-09T16:50:02.351Z,13.00
2022-10-09T16:53:05.502Z,13.50
2022-10-09T16:56:13.568Z,12.83
2022-10-09T16:59:17.990Z,13.10
2022-10-09T17:02:21.016Z,14.63
2022-10-09T17:05:25.547Z,12.67
2022-10-09T17:08:28.822Z,13.10
2022-10-09T17:11:32.444Z,13.27
2022-10-09T17:14:37.055Z,13.77
2022-10-09T17:17:40.224Z,13.77
2022-10-09T17:20:43.269Z,14.13
2022-10-09T17:23:47.337Z,13.17
2022-10-09T17:26:50.531Z,12.77
2022-10-09T17:29:55.029Z,12.90
2022-10-09T17:32:58.478Z,13.50
2022-10-09T17:36:03.208Z,13.70
2022-10-09T17:39:08.218Z,12.33
2022-10-09T17:42:11.639Z,11.90
2022-10-09T17:45:16.222Z,13.93
2022-10-09T17:48:19.546Z,13.90
2022-10-09T17:51:25.448Z,13.00
2022-10-09T17:54:28.547Z,12.73
2022-10-09T17:57:31.615Z,12.40
2022-10-09T18:00:38.544Z,13.27
2022-10-09T18:03:41.844Z,12.40
2022-10-09T18:06:45.442Z,12.60
2022-10-09T18:09:51.437Z,13.20
2022-10-09T18:12:54.506Z,12.93
2022-10-09T18:15:59.112Z,13.50
2022-10-09T18:19:02.562Z,13.90
2022-10-09T18:22:05.663Z,13.00
2022-10-09T18:25:09.295Z,13.30
2022-10-09T18:28:13.660Z,13.93
2022-10-09T18:31:20.192Z,12.80
2022-10-09T18:34:23.244Z,13.33
2022-10-09T18:37:26.272Z,13.03
2022-10-09T18:40:29.471Z,12.40
2022-10-09T18:43:33.668Z,12.37
2022-10-09T18:46:42.349Z,12.70
2022-10-09T18:49:48.655Z,13.70
2022-10-09T18:52:51.899Z,13.50
2022-10-09T18:55:55.560Z,13.87
2022-10-09T18:59:01.556Z,14.60
2022-10-09T19:02:06.514Z,14.20
2022-10-09T19:05:10.328Z,14.80
2022-10-09T19:08:13.381Z,13.10
2022-10-09T19:11:16.550Z,13.47
2022-10-09T19:14:20.601Z,14.20
2022-10-09T19:17:25.184Z,14.60
2022-10-09T19:20:29.437Z,15.53
2022-10-09T19:23:32.772Z,14.83
2022-10-09T19:26:36.370Z,14.13
2022-10-09T19:29:39.675Z,14.03
2022-10-09T19:32:44.144Z,15.40
2022-10-09T19:35:48.571Z,15.50
2022-10-09T19:38:51.660Z,14.63
2022-10-09T19:41:55.217Z,14.43
2022-10-09T19:44:58.254Z,15.40
2022-10-09T19:48:02.785Z,15.30
2022-10-09T19:51:10.445Z,15.00
2022-10-09T19:54:13.512Z,15.93
2022-10-09T19:57:16.575Z,15.37
2022-10-09T20:00:19.898Z,15.60
2022-10-09T20:03:24.322Z,14.83
2022-10-09T20:06:27.525Z,14.77
2022-10-09T20:09:30.624Z,14.60
2022-10-09T20:12:33.657Z,16.00
2022-10-09T20:15:36.641Z,16.83
2022-10-09T20:18:42.417Z,15.73
2022-10-09T20:21:45.579Z,16.73
2022-10-09T20:24:48.648Z,17.07
2022-10-09T20:27:51.594Z,15.20
2022-10-09T20:30:57.727Z,14.97
2022-10-09T20:34:02.152Z,14.60
2022-10-09T20:37:05.224Z,14.40
2022-10-09T20:40:08.564Z,15.30
2022-10-09T20:43:12.124Z,14.40
2022-10-09T20:46:16.512Z,14.83
2022-10-09T20:49:20.978Z,14.53
2022-10-09T20:52:23.960Z,15.70
2022-10-09T20:55:27.025Z,15.03
2022-10-09T20:58:30.870Z,14.33
2022-10-09T21:01:33.892Z,14.10
2022-10-09T21:04:38.286Z,14.27
2022-10-09T21:07:41.359Z,13.50
2022-10-09T21:10:45.290Z,14.03
2022-10-09T21:13:49.561Z,14.73
2022-10-09T21:16:52.669Z,14.30
2022-10-09T21:19:58.063Z,14.53
2022-10-09T21:23:01.127Z,14.67
2022-10-09T21:26:04.770Z,14.00
2022-10-09T21:29:08.411Z,13.77
2022-10-09T21:32:11.406Z,13.10
2022-10-09T21:35:15.946Z,14.97
2022-10-09T21:38:20.965Z,13.93
2022-10-09T21:41:24.492Z,13.70
2022-10-09T21:44:27.657Z,14.10
2022-10-09T21:47:30.803Z,14.83
2022-10-09T21:50:36.418Z,14.17
2022-10-09T21:53:39.496Z,13.93
2022-10-09T21:56:42.780Z,14.83
2022-10-09T21:59:45.795Z,13.93
2022-10-09T22:02:49.057Z,13.50
2022-10-09T22:05:54.024Z,13.43
2022-10-09T22:08:57.031Z,14.53
2022-10-09T22:12:00.395Z,13.67
2022-10-09T22:15:03.453Z,13.83
2022-10-09T22:18:06.612Z,13.77
2022-10-09T22:21:13.065Z,13.40
2022-10-09T22:24:16.245Z,13.87
2022-10-09T22:27:19.551Z,13.13
2022-10-09T22:30:22.513Z,13.80
2022-10-09T22:33:25.495Z,14.50
2022-10-09T22:36:31.755Z,12.73
2022-10-09T22:39:34.960Z,13.63
2022-10-09T22:42:37.959Z,13.83
2022-10-09T22:45:40.947Z,14.67
2022-10-09T22:48:45.227Z,13.73
2022-10-09T22:51:49.683Z,14.23
2022-10-09T22:54:53.168Z,14.43
2022-10-09T22:57:56.504Z,14.20
2022-10-09T23:01:04.001Z,13.27
2022-10-09T23:04:09.391Z,14.77
2022-10-09T23:07:13.861Z,14.33
2022-10-09T23:10:16.928Z,13.63
2022-10-09T23:13:21.748Z,12.60
2022-10-09T23:16:25.593Z,13.90
2022-10-09T23:19:28.601Z,13.20
2022-10-09T23:22:33.071Z,13.60
2022-10-09T23:25:40.491Z,14.43
2022-10-09T23:28:44.766Z,14.00
2022-10-09T23:31:48.599Z,14.23
2022-10-09T23:34:51.596Z,12.83
2022-10-09T23:37:56.047Z,14.67
2022-10-09T23:40:59.885Z,14.00
2022-10-09T23:44:03.100Z,13.73
2022-10-09T23:47:06.191Z,12.93
2022-10-09T23:50:09.485Z,14.40
2022-10-09T23:53:13.917Z,13.30
2022-10-09T23:56:19.116Z,14.30
2022-10-09T23:59:22.183Z,14.20
